createdAt,value
2018-11-29T06:43:46.323Z,46.63
2018-11-29T06:44:46.255Z,46.53
2018-11-29T06:45:46.300Z,46.30
2018-11-29T06:46:46.239Z,46.41
2018-11-29T06:47:47.266Z,46.61
2018-11-29T06:48:46.208Z,46.71
2018-11-29T06:49:46.375Z,47.31
2018-11-29T06:50:46.192Z,46.51
2018-11-29T06:51:46.345Z,47.11
2018-11-29T06:52:46.197Z,47.11
2018-11-29T06:53:47.229Z,47.30
2018-11-29T06:54:46.145Z,47.02
2018-11-29T06:55:46.179Z,46.69
2018-11-29T06:56:46.117Z,46.89
2018-11-29T06:57:46.252Z,47.09
2018-11-29T06:58:46.112Z,47.19
2018-11-29T06:59:46.222Z,47.30
2018-11-29T07:00:46.080Z,47.39
2018-11-29T07:01:46.195Z,47.19
2018-11-29T07:02:46.052Z,47.30
2018-11-29T07:03:46.194Z,47.30
2018-11-29T07:04:46.038Z,47.09
2018-11-29T07:05:46.230Z,47.09
2018-11-29T07:06:46.023Z,47.39
2018-11-29T07:07:46.094Z,47.30
2018-11-29T07:08:46.003Z,46.87
2018-11-29T07:09:46.168Z,47.47
2018-11-29T07:10:45.962Z,47.09
2018-11-29T07:11:46.158Z,47.19
2018-11-29T07:12:45.943Z,47.09
2018-11-29T07:13:46.128Z,46.99
2018-11-29T07:14:45.915Z,46.99
2018-11-29T07:15:46.069Z,47.38
2018-11-29T07:16:45.899Z,46.87
2018-11-29T07:17:47.980Z,47.30
2018-11-29T07:18:45.899Z,47.27
2018-11-29T07:19:46.014Z,47.17
2018-11-29T07:20:45.848Z,47.27
2018-11-29T07:21:45.968Z,47.17
2018-11-29T07:22:45.836Z,47.07
2018-11-29T07:23:45.979Z,47.17
2018-11-29T07:24:45.804Z,46.97
2018-11-29T07:25:45.905Z,47.27
2018-11-29T07:26:45.788Z,46.87
2018-11-29T07:27:45.976Z,46.67
2018-11-29T07:28:45.776Z,46.56
2018-11-29T07:29:45.848Z,46.56
2018-11-29T07:30:45.738Z,46.77
2018-11-29T07:31:45.907Z,46.97
2018-11-29T07:32:45.709Z,46.77
2018-11-29T07:33:45.808Z,46.87
2018-11-29T07:34:45.706Z,47.78
2018-11-29T07:35:45.744Z,46.87
2018-11-29T07:36:45.675Z,46.56
2018-11-29T07:37:45.823Z,46.56
2018-11-29T07:38:45.674Z,46.46
2018-11-29T07:39:45.678Z,46.87
2018-11-29T07:40:45.627Z,47.35
2018-11-29T07:41:45.761Z,47.38
2018-11-29T07:42:45.642Z,47.55
2018-11-29T07:43:45.762Z,46.16
2018-11-29T07:44:45.585Z,46.46
2018-11-29T07:45:45.694Z,46.56
2018-11-29T07:46:45.561Z,46.36
2018-11-29T07:47:45.659Z,46.34
2018-11-29T07:48:45.568Z,46.34
2018-11-29T07:49:45.724Z,46.44
2018-11-29T07:50:45.511Z,46.54
2018-11-29T07:51:45.626Z,46.34
2018-11-29T07:52:45.496Z,46.34
2018-11-29T07:53:45.696Z,46.34
2018-11-29T07:54:45.472Z,46.26
2018-11-29T07:55:45.647Z,46.54
2018-11-29T07:56:45.447Z,46.26
2018-11-29T07:57:45.489Z,46.34
2018-11-29T07:58:45.441Z,46.54
2018-11-29T07:59:45.584Z,46.44
2018-11-29T08:00:45.429Z,46.54
2018-11-29T08:01:45.533Z,46.34
2018-11-29T08:02:45.381Z,46.44
2018-11-29T08:03:46.573Z,46.34
2018-11-29T08:04:45.357Z,46.64
2018-11-29T08:05:46.305Z,46.84
2018-11-29T08:06:45.333Z,47.83
2018-11-29T08:07:47.635Z,46.92
2018-11-29T08:08:45.347Z,46.84
2018-11-29T08:09:47.447Z,47.66
2018-11-29T08:10:45.290Z,48.24
2018-11-29T08:11:45.476Z,49.05
2018-11-29T08:12:45.275Z,48.44
2018-11-29T08:13:45.340Z,48.95
2018-11-29T08:14:45.289Z,49.76
2018-11-29T08:15:45.455Z,50.16
2018-11-29T08:16:45.541Z,50.16
2018-11-29T08:17:45.409Z,50.16
2018-11-29T08:18:45.210Z,50.87
2018-11-29T08:19:45.282Z,51.07
2018-11-29T08:20:45.189Z,51.25
2018-11-29T08:21:45.330Z,51.45
2018-11-29T08:22:45.161Z,51.55
2018-11-29T08:23:45.197Z,50.95
2018-11-29T08:24:45.148Z,51.76
2018-11-29T08:25:45.261Z,52.46
2018-11-29T08:26:45.114Z,52.67
2018-11-29T08:27:45.221Z,52.67
2018-11-29T08:28:45.103Z,52.97
2018-11-29T08:29:45.322Z,52.56
2018-11-29T08:30:45.295Z,52.36
2018-11-29T08:31:45.161Z,53.47
2018-11-29T08:32:45.043Z,52.97
2018-11-29T08:33:45.233Z,52.67
2018-11-29T08:34:45.044Z,53.07
2018-11-29T08:35:45.212Z,53.38
2018-11-29T08:36:44.999Z,53.88
2018-11-29T08:37:45.066Z,53.88
2018-11-29T08:38:44.975Z,53.85
2018-11-29T08:39:46.089Z,53.65
2018-11-29T08:40:44.963Z,53.85
2018-11-29T08:41:45.000Z,54.36
2018-11-29T08:42:44.929Z,53.55
2018-11-29T08:43:45.075Z,53.85
2018-11-29T08:44:44.936Z,53.65
2018-11-29T08:45:44.937Z,54.05
2018-11-29T08:46:44.894Z,54.46
2018-11-29T08:47:45.015Z,54.46
2018-11-29T08:48:44.895Z,54.46
2018-11-29T08:49:46.042Z,54.25
2018-11-29T08:50:44.845Z,54.46
2018-11-29T08:51:45.961Z,54.23
2018-11-29T08:52:44.862Z,54.25
2018-11-29T08:53:52.047Z,54.33
2018-11-29T08:54:44.817Z,54.43
2018-11-29T08:55:44.877Z,54.25
2018-11-29T08:56:44.783Z,54.53
2018-11-29T08:57:46.887Z,54.56
2018-11-29T08:58:44.774Z,54.33
2018-11-29T08:59:44.843Z,54.36
2018-11-29T09:00:44.728Z,54.36
2018-11-29T09:01:44.892Z,54.25
2018-11-29T09:02:44.711Z,54.43
2018-11-29T09:03:44.776Z,54.43
2018-11-29T09:04:44.715Z,53.96
2018-11-29T09:05:44.829Z,53.85
2018-11-29T09:06:44.662Z,54.23
2018-11-29T09:07:44.786Z,53.55
2018-11-29T09:08:44.641Z,53.83
2018-11-29T09:09:44.795Z,53.96
2018-11-29T09:10:44.647Z,53.85
2018-11-29T09:11:45.418Z,53.83
2018-11-29T09:12:44.597Z,53.85
2018-11-29T09:13:44.794Z,53.63
2018-11-29T09:14:44.602Z,53.75
2018-11-29T09:15:44.663Z,53.83
2018-11-29T09:16:44.551Z,53.93
2018-11-29T09:17:44.633Z,54.23
2018-11-29T09:18:44.531Z,53.63
2018-11-29T09:19:44.601Z,53.93
2018-11-29T09:20:44.528Z,53.63
2018-11-29T09:21:44.562Z,53.72
2018-11-29T09:22:44.481Z,53.93
2018-11-29T09:23:44.653Z,53.72
2018-11-29T09:24:44.533Z,53.83
2018-11-29T09:25:44.646Z,53.83
2018-11-29T09:26:44.448Z,54.13
2018-11-29T09:27:44.573Z,54.23
2018-11-29T09:28:44.423Z,54.33
2018-11-29T09:29:47.502Z,53.83
2018-11-29T09:30:44.419Z,53.52
2018-11-29T09:31:44.609Z,53.42
2018-11-29T09:32:44.376Z,53.72
2018-11-29T09:33:44.479Z,53.93
2018-11-29T09:34:44.779Z,52.61
2018-11-29T09:35:46.417Z,52.51
2018-11-29T09:36:44.329Z,52.72
2018-11-29T09:37:44.631Z,52.92
2018-11-29T09:38:44.310Z,52.92
2018-11-29T09:39:44.379Z,53.12
2018-11-29T09:40:44.299Z,53.02
2018-11-29T09:41:45.371Z,53.02
2018-11-29T09:42:44.267Z,53.12
2018-11-29T09:43:45.279Z,52.89
2018-11-29T09:44:44.246Z,52.29
2018-11-29T09:45:44.427Z,52.39
2018-11-29T09:46:44.221Z,52.29
2018-11-29T09:47:44.363Z,52.72
2018-11-29T09:48:44.216Z,52.51
2018-11-29T09:49:44.318Z,52.82
2018-11-29T09:50:44.185Z,52.92
2018-11-29T09:51:44.288Z,52.92
2018-11-29T09:52:44.158Z,52.59
2018-11-29T09:53:44.363Z,52.39
2018-11-29T09:54:44.137Z,52.19
2018-11-29T09:55:44.260Z,52.59
2018-11-29T09:56:44.113Z,52.59
2018-11-29T09:57:44.195Z,52.89
2018-11-29T09:58:44.084Z,52.39
2018-11-29T09:59:44.277Z,52.49
2018-11-29T10:00:44.086Z,52.49
2018-11-29T10:01:44.131Z,52.49
2018-11-29T10:02:44.042Z,52.09
2018-11-29T10:03:44.201Z,51.98
2018-11-29T10:04:44.020Z,52.39
2018-11-29T10:05:44.109Z,52.29
2018-11-29T10:06:43.995Z,52.19
2018-11-29T10:07:44.140Z,51.68
2018-11-29T10:08:43.974Z,51.78
2018-11-29T10:09:46.047Z,51.18
2018-11-29T10:10:43.958Z,50.78
2018-11-29T10:11:44.108Z,51.58
2018-11-29T10:12:43.925Z,51.56
2018-11-29T10:13:46.334Z,51.35
2018-11-29T10:14:43.907Z,51.07
2018-11-29T10:15:44.012Z,50.98
2018-11-29T10:16:43.905Z,51.05
2018-11-29T10:17:44.077Z,51.35
2018-11-29T10:18:43.873Z,51.45
2018-11-29T10:19:43.945Z,51.25
2018-11-29T10:20:43.844Z,51.56
2018-11-29T10:21:43.952Z,51.35
2018-11-29T10:22:43.821Z,51.25
2018-11-29T10:23:43.884Z,51.13
2018-11-29T10:24:43.805Z,51.33
2018-11-29T10:25:44.189Z,51.33
2018-11-29T10:26:43.817Z,51.84
2018-11-29T10:27:43.921Z,51.13
2018-11-29T10:28:43.769Z,50.93
2018-11-29T10:29:44.007Z,50.93
2018-11-29T10:30:43.729Z,51.13
2018-11-29T10:31:43.898Z,50.82
2018-11-29T10:32:43.709Z,50.82
2018-11-29T10:33:43.927Z,50.52
2018-11-29T10:34:43.707Z,50.73
2018-11-29T10:35:43.795Z,50.32
2018-11-29T10:36:43.697Z,50.82
2018-11-29T10:37:43.763Z,50.42
2018-11-29T10:38:43.651Z,50.02
2018-11-29T10:39:43.744Z,50.02
2018-11-29T10:40:43.619Z,50.42
2018-11-29T10:41:43.739Z,50.42
2018-11-29T10:42:43.607Z,50.62
2018-11-29T10:43:43.772Z,50.20
2018-11-29T10:44:43.579Z,50.22
2018-11-29T10:45:43.671Z,50.22
2018-11-29T10:46:43.580Z,50.82
2018-11-29T10:47:43.607Z,50.80
2018-11-29T10:48:43.537Z,50.50
2018-11-29T10:49:43.685Z,50.52
2018-11-29T10:50:43.517Z,50.60
2018-11-29T10:51:43.679Z,50.40
2018-11-29T10:52:43.485Z,50.60
2018-11-29T10:53:43.502Z,50.52
2018-11-29T10:54:43.484Z,50.70
2018-11-29T10:55:43.577Z,50.40
2018-11-29T10:56:43.458Z,50.50
2018-11-29T10:57:43.553Z,50.50
2018-11-29T10:58:43.419Z,50.82
2018-11-29T10:59:43.512Z,50.80
2018-11-29T11:00:43.396Z,50.70
2018-11-29T11:01:44.448Z,50.40
2018-11-29T11:02:43.381Z,50.62
2018-11-29T11:03:43.455Z,50.80
2018-11-29T11:04:43.353Z,50.40
2018-11-29T11:05:43.427Z,50.40
2018-11-29T11:06:43.364Z,50.40
2018-11-29T11:07:44.409Z,50.80
2018-11-29T11:08:43.303Z,50.80
2018-11-29T11:09:43.357Z,50.40
2018-11-29T11:10:43.293Z,50.40
2018-11-29T11:11:43.329Z,50.40
2018-11-29T11:12:43.308Z,50.20
2018-11-29T11:13:43.289Z,50.10
2018-11-29T11:14:43.242Z,49.99
2018-11-29T11:15:43.257Z,50.30
2018-11-29T11:16:43.223Z,50.22
2018-11-29T11:17:43.255Z,50.10
2018-11-29T11:18:43.199Z,50.50
2018-11-29T11:19:43.305Z,50.30
2018-11-29T11:20:43.174Z,50.10
2018-11-29T11:21:43.261Z,49.49
2018-11-29T11:22:43.173Z,49.99
2018-11-29T11:23:43.239Z,49.39
2018-11-29T11:24:43.141Z,49.39
2018-11-29T11:25:43.202Z,50.10
2018-11-29T11:26:43.107Z,49.99
2018-11-29T11:27:43.212Z,49.99
2018-11-29T11:28:43.093Z,49.79
2018-11-29T11:29:43.137Z,50.20
2018-11-29T11:30:43.076Z,49.90
2018-11-29T11:31:43.109Z,49.99
2018-11-29T11:32:43.073Z,49.79
2018-11-29T11:33:43.073Z,50.30
2018-11-29T11:34:43.150Z,49.99
2018-11-29T11:35:43.056Z,49.79
2018-11-29T11:36:43.018Z,49.90
2018-11-29T11:37:43.048Z,49.69
2018-11-29T11:38:42.974Z,49.69
2018-11-29T11:39:43.084Z,49.69
2018-11-29T11:40:42.957Z,49.39
2018-11-29T11:41:43.055Z,49.59
2018-11-29T11:42:42.960Z,49.39
2018-11-29T11:43:44.045Z,49.19
2018-11-29T11:44:42.929Z,49.09
2018-11-29T11:45:44.013Z,49.49
2018-11-29T11:46:42.898Z,49.09
2018-11-29T11:47:44.019Z,48.38
2018-11-29T11:48:42.865Z,48.58
2018-11-29T11:49:42.921Z,48.69
2018-11-29T11:50:42.850Z,48.69
2018-11-29T11:51:42.888Z,48.49
2018-11-29T11:52:42.835Z,48.89
2018-11-29T11:53:42.862Z,49.19
2018-11-29T11:54:42.793Z,49.27
2018-11-29T11:55:43.846Z,49.09
2018-11-29T11:56:42.783Z,49.19
2018-11-29T11:57:42.831Z,48.89
2018-11-29T11:58:42.759Z,48.18
2018-11-29T11:59:42.873Z,48.38
2018-11-29T12:00:42.727Z,48.18
2018-11-29T12:01:42.833Z,48.18
2018-11-29T12:02:42.807Z,48.46
2018-11-29T12:03:43.829Z,48.58
2018-11-29T12:04:42.685Z,48.89
2018-11-29T12:05:42.764Z,48.86
2018-11-29T12:06:42.657Z,48.79
2018-11-29T12:07:42.787Z,48.58
2018-11-29T12:08:42.640Z,48.58
2018-11-29T12:09:42.767Z,48.86
2018-11-29T12:10:42.616Z,48.89
2018-11-29T12:11:42.679Z,49.07
2018-11-29T12:12:42.632Z,48.36
2018-11-29T12:13:42.641Z,48.58
2018-11-29T12:14:42.583Z,48.46
2018-11-29T12:15:42.607Z,48.38
2018-11-29T12:16:42.561Z,48.06
2018-11-29T12:17:42.613Z,48.16
2018-11-29T12:18:42.536Z,48.16
2018-11-29T12:19:42.648Z,48.16
2018-11-29T12:20:42.514Z,48.56
2018-11-29T12:21:42.631Z,48.46
2018-11-29T12:22:42.483Z,48.06
2018-11-29T12:23:42.630Z,48.06
2018-11-29T12:24:42.463Z,48.26
2018-11-29T12:25:42.567Z,48.16
2018-11-29T12:26:42.447Z,48.06
2018-11-29T12:27:42.519Z,47.96
2018-11-29T12:28:42.573Z,48.06
2018-11-29T12:29:42.490Z,47.86
2018-11-29T12:30:42.395Z,47.66
2018-11-29T12:31:46.545Z,47.66
2018-11-29T12:32:42.393Z,47.45
2018-11-29T12:33:42.457Z,47.45
2018-11-29T12:34:42.349Z,47.47
2018-11-29T12:35:42.397Z,47.27
2018-11-29T12:36:42.334Z,47.96
2018-11-29T12:37:43.387Z,47.45
2018-11-29T12:38:42.459Z,47.98
2018-11-29T12:39:43.361Z,47.66
2018-11-29T12:40:42.294Z,47.47
2018-11-29T12:41:42.402Z,47.05
2018-11-29T12:42:42.271Z,47.47
2018-11-29T12:43:43.328Z,47.45
2018-11-29T12:44:42.251Z,47.05
2018-11-29T12:45:42.334Z,46.87
2018-11-29T12:46:42.217Z,46.95
2018-11-29T12:47:42.317Z,47.15
2018-11-29T12:48:42.216Z,46.85
2018-11-29T12:49:42.271Z,47.27
2018-11-29T12:50:42.172Z,47.25
2018-11-29T12:51:42.243Z,47.17
2018-11-29T12:52:42.163Z,46.87
2018-11-29T12:53:42.243Z,46.87
2018-11-29T12:54:42.136Z,46.87
2018-11-29T12:55:42.183Z,47.15
2018-11-29T12:56:42.099Z,47.07
2018-11-29T12:57:42.329Z,47.07
2018-11-29T12:58:42.112Z,47.05
2018-11-29T12:59:42.107Z,46.77
2018-11-29T13:00:42.074Z,46.65
2018-11-29T13:01:42.085Z,47.05
2018-11-29T13:02:42.035Z,47.15
2018-11-29T13:03:42.099Z,47.15
2018-11-29T13:04:42.021Z,47.05
2018-11-29T13:05:42.125Z,47.15
2018-11-29T13:06:41.996Z,46.85
2018-11-29T13:07:43.392Z,46.75
2018-11-29T13:08:41.995Z,46.75
2018-11-29T13:09:42.053Z,46.85
2018-11-29T13:10:41.960Z,47.25
2018-11-29T13:11:42.020Z,47.05
2018-11-29T13:12:41.924Z,47.05
2018-11-29T13:13:42.023Z,46.85
2018-11-29T13:14:41.908Z,46.85
2018-11-29T13:15:41.979Z,47.25
2018-11-29T13:16:41.891Z,47.25
2018-11-29T13:17:41.970Z,47.45
2018-11-29T13:18:41.855Z,46.65
2018-11-29T13:19:41.928Z,46.75
2018-11-29T13:20:41.844Z,46.95
2018-11-29T13:21:41.994Z,46.75
2018-11-29T13:22:41.830Z,47.45
2018-11-29T13:23:41.832Z,47.43
2018-11-29T13:24:41.822Z,47.35
2018-11-29T13:25:41.897Z,47.35
2018-11-29T13:26:41.804Z,47.53
2018-11-29T13:27:41.873Z,47.23
2018-11-29T13:28:41.742Z,47.53
2018-11-29T13:29:41.878Z,47.63
2018-11-29T13:30:41.723Z,47.53
2018-11-29T13:31:41.810Z,47.94
2018-11-29T13:32:41.704Z,47.63
2018-11-29T13:33:41.842Z,47.33
2018-11-29T13:34:41.703Z,47.53
2018-11-29T13:35:42.764Z,47.53
2018-11-29T13:36:41.663Z,47.63
2018-11-29T13:37:41.717Z,47.83
2018-11-29T13:38:41.676Z,47.81
2018-11-29T13:39:41.711Z,47.94
2018-11-29T13:40:41.727Z,48.01
2018-11-29T13:41:41.668Z,48.11
2018-11-29T13:42:41.592Z,48.21
2018-11-29T13:43:41.615Z,48.01
2018-11-29T13:44:41.595Z,48.44
2018-11-29T13:45:41.689Z,48.52
2018-11-29T13:46:41.548Z,48.61
2018-11-29T13:47:41.652Z,48.21
2018-11-29T13:48:41.574Z,48.01
2018-11-29T13:49:41.655Z,48.11
2018-11-29T13:50:41.615Z,48.32
2018-11-29T13:51:41.591Z,48.24
2018-11-29T13:52:41.484Z,48.01
2018-11-29T13:53:42.586Z,48.32
2018-11-29T13:54:41.483Z,48.32
2018-11-29T13:55:41.600Z,48.52
2018-11-29T13:56:41.428Z,48.52
2018-11-29T13:57:48.761Z,48.52
2018-11-29T13:58:41.409Z,48.41
2018-11-29T13:59:41.496Z,48.41
2018-11-29T14:00:41.392Z,48.32
2018-11-29T14:01:41.430Z,48.01
2018-11-29T14:02:41.369Z,48.01
2018-11-29T14:03:41.400Z,48.61
2018-11-29T14:04:41.376Z,48.24
2018-11-29T14:05:41.369Z,47.63
2018-11-29T14:06:41.341Z,48.01
2018-11-29T14:07:42.367Z,47.83
2018-11-29T14:08:41.323Z,47.63
2018-11-29T14:09:41.440Z,47.51
2018-11-29T14:10:41.312Z,47.74
2018-11-29T14:11:41.370Z,47.43
2018-11-29T14:12:41.258Z,47.63
2018-11-29T14:13:41.336Z,47.43
2018-11-29T14:14:41.232Z,47.53
2018-11-29T14:15:41.343Z,47.23
2018-11-29T14:16:41.267Z,46.73
2018-11-29T14:17:41.273Z,47.03
2018-11-29T14:18:41.202Z,47.03
2018-11-29T14:19:41.280Z,46.73
2018-11-29T14:20:41.221Z,47.03
2018-11-29T14:21:41.220Z,47.03
2018-11-29T14:22:41.146Z,47.03
2018-11-29T14:23:41.187Z,46.83
2018-11-29T14:24:41.129Z,46.83
2018-11-29T14:25:41.186Z,46.73
2018-11-29T14:26:41.102Z,46.73
2018-11-29T14:27:41.112Z,46.45
2018-11-29T14:28:41.074Z,46.45
2018-11-29T14:29:41.186Z,46.42
2018-11-29T14:30:41.074Z,46.85
2018-11-29T14:31:41.150Z,46.42
2018-11-29T14:32:41.029Z,46.33
2018-11-29T14:33:41.123Z,46.42
2018-11-29T14:34:41.014Z,46.33
2018-11-29T14:35:41.127Z,46.42
2018-11-29T14:36:40.984Z,46.42
2018-11-29T14:37:42.193Z,46.73
2018-11-29T14:38:40.966Z,46.73
2018-11-29T14:39:41.036Z,46.93
2018-11-29T14:40:40.976Z,47.03
2018-11-29T14:41:42.023Z,46.93
2018-11-29T14:42:40.937Z,46.93
2018-11-29T14:43:40.966Z,47.00
2018-11-29T14:44:40.916Z,47.11
2018-11-29T14:45:40.983Z,46.80
2018-11-29T14:46:40.885Z,47.00
2018-11-29T14:47:40.904Z,46.60
2018-11-29T14:48:40.852Z,46.70
2018-11-29T14:49:40.971Z,46.80
2018-11-29T14:50:40.896Z,47.03
2018-11-29T14:51:47.972Z,47.20
2018-11-29T14:52:41.808Z,47.20
2018-11-29T14:53:40.916Z,47.20
2018-11-29T14:54:40.785Z,47.20
2018-11-29T14:55:40.910Z,47.31
2018-11-29T14:56:40.762Z,47.11
2018-11-29T14:57:41.879Z,47.20
2018-11-29T14:58:40.744Z,47.81
2018-11-29T14:59:40.814Z,47.49
2018-11-29T15:00:40.738Z,47.91
2018-11-29T15:01:40.805Z,47.41
2018-11-29T15:02:40.701Z,47.51
2018-11-29T15:03:40.755Z,47.81
2018-11-29T15:04:40.674Z,47.89
2018-11-29T15:05:40.767Z,47.81
2018-11-29T15:06:40.654Z,47.81
2018-11-29T15:07:40.682Z,47.61
2018-11-29T15:08:40.639Z,47.61
2018-11-29T15:09:40.654Z,47.41
2018-11-29T15:10:40.625Z,47.51
2018-11-29T15:11:40.620Z,47.11
2018-11-29T15:12:40.596Z,47.61
2018-11-29T15:13:40.685Z,47.59
2018-11-29T15:14:40.581Z,47.41
2018-11-29T15:15:40.694Z,47.31
2018-11-29T15:16:40.539Z,47.71
2018-11-29T15:17:40.631Z,47.20
2018-11-29T15:18:40.521Z,47.41
2018-11-29T15:19:40.606Z,47.91
2018-11-29T15:20:40.517Z,47.41
2018-11-29T15:21:40.567Z,47.81
2018-11-29T15:22:40.478Z,47.61
2018-11-29T15:23:41.565Z,47.59
2018-11-29T15:24:40.450Z,47.79
2018-11-29T15:25:42.593Z,47.71
2018-11-29T15:26:40.434Z,47.59
2018-11-29T15:27:40.468Z,48.11
2018-11-29T15:28:40.405Z,47.51
2018-11-29T15:29:40.436Z,47.71
2018-11-29T15:30:40.396Z,47.61
2018-11-29T15:31:40.437Z,47.71
2018-11-29T15:32:40.360Z,47.81
2018-11-29T15:33:40.472Z,47.61
2018-11-29T15:34:40.344Z,47.91
2018-11-29T15:35:40.449Z,47.49
2018-11-29T15:36:40.338Z,47.59
2018-11-29T15:37:40.426Z,48.09
2018-11-29T15:38:40.303Z,47.59
2018-11-29T15:39:40.382Z,47.69
2018-11-29T15:40:40.297Z,47.28
2018-11-29T15:41:40.387Z,47.51
2018-11-29T15:42:40.264Z,47.61
2018-11-29T15:43:40.317Z,47.59
2018-11-29T15:44:40.233Z,47.79
2018-11-29T15:45:41.316Z,47.79
2018-11-29T15:46:40.236Z,47.39
2018-11-29T15:47:40.256Z,47.89
2018-11-29T15:48:40.187Z,48.09
2018-11-29T15:49:42.263Z,47.99
2018-11-29T15:50:40.160Z,47.69
2018-11-29T15:51:40.225Z,47.99
2018-11-29T15:52:40.146Z,47.69
2018-11-29T15:53:40.266Z,47.99
2018-11-29T15:54:40.114Z,48.09
2018-11-29T15:55:40.228Z,47.99
2018-11-29T15:56:40.113Z,47.99
2018-11-29T15:57:40.208Z,48.19
2018-11-29T15:58:40.072Z,48.49
2018-11-29T15:59:41.190Z,47.91
2018-11-29T16:00:40.056Z,48.52
2018-11-29T16:01:40.167Z,48.52
2018-11-29T16:02:40.028Z,48.01
2018-11-29T16:03:40.116Z,48.21
2018-11-29T16:04:40.023Z,48.21
2018-11-29T16:05:41.268Z,48.11
2018-11-29T16:06:39.984Z,48.01
2018-11-29T16:07:40.016Z,47.91
2018-11-29T16:08:39.964Z,48.74
2018-11-29T16:09:40.004Z,48.01
2018-11-29T16:10:39.943Z,48.01
2018-11-29T16:11:39.967Z,48.72
2018-11-29T16:12:39.932Z,48.01
2018-11-29T16:13:39.939Z,48.11
2018-11-29T16:14:43.420Z,48.32
2018-11-29T16:15:40.006Z,48.72
2018-11-29T16:16:39.878Z,48.21
2018-11-29T16:17:39.911Z,47.83
2018-11-29T16:18:39.853Z,47.91
2018-11-29T16:19:39.945Z,47.91
2018-11-29T16:20:39.833Z,48.52
2018-11-29T16:21:39.923Z,48.03
2018-11-29T16:22:39.827Z,48.52
2018-11-29T16:23:39.884Z,48.32
2018-11-29T16:24:39.799Z,48.24
2018-11-29T16:25:39.853Z,48.21
2018-11-29T16:26:39.761Z,48.74
2018-11-29T16:27:39.867Z,48.21
2018-11-29T16:28:39.738Z,47.74
2018-11-29T16:29:40.813Z,48.24
2018-11-29T16:30:39.719Z,48.14
2018-11-29T16:31:39.755Z,48.24
2018-11-29T16:32:39.722Z,48.44
2018-11-29T16:33:39.779Z,48.54
2018-11-29T16:34:39.675Z,48.64
2018-11-29T16:35:39.693Z,48.61
2018-11-29T16:36:39.651Z,48.74
2018-11-29T16:37:39.676Z,48.14
2018-11-29T16:38:39.639Z,48.64
2018-11-29T16:39:39.742Z,48.64
2018-11-29T16:40:39.603Z,48.64
2018-11-29T16:41:39.699Z,48.64
2018-11-29T16:42:39.601Z,48.64
2018-11-29T16:43:39.685Z,48.64
2018-11-29T16:44:39.567Z,48.54
2018-11-29T16:45:39.642Z,48.74
2018-11-29T16:46:39.538Z,48.64
2018-11-29T16:47:39.735Z,48.64
2018-11-29T16:48:39.516Z,48.64
2018-11-29T16:49:40.598Z,48.54
2018-11-29T16:50:39.494Z,48.56
2018-11-29T16:51:39.491Z,48.54
2018-11-29T16:52:39.489Z,48.03
2018-11-29T16:53:39.503Z,48.84
2018-11-29T16:54:39.448Z,48.24
2018-11-29T16:55:40.447Z,47.74
2018-11-29T16:56:39.429Z,48.24
2018-11-29T16:57:40.503Z,47.66
2018-11-29T16:58:39.403Z,48.76
2018-11-29T16:59:40.429Z,48.06
2018-11-29T17:00:39.385Z,48.06
2018-11-29T17:01:39.485Z,48.14
2018-11-29T17:02:39.409Z,48.16
2018-11-29T17:03:40.479Z,48.16
2018-11-29T17:04:39.336Z,47.96
2018-11-29T17:05:39.340Z,48.06
2018-11-29T17:06:39.329Z,48.46
2018-11-29T17:07:39.444Z,48.46
2018-11-29T17:08:39.293Z,48.36
2018-11-29T17:09:39.355Z,47.86
2018-11-29T17:10:39.276Z,47.66
2018-11-29T17:11:39.317Z,47.66
2018-11-29T17:12:39.291Z,47.66
2018-11-29T17:13:39.285Z,47.55
2018-11-29T17:14:39.227Z,47.35
2018-11-29T17:15:40.301Z,47.55
2018-11-29T17:16:39.201Z,47.66
2018-11-29T17:17:39.221Z,47.96
2018-11-29T17:18:39.200Z,47.88
2018-11-29T17:19:39.306Z,48.06
2018-11-29T17:20:39.164Z,47.45
2018-11-29T17:21:39.265Z,47.55
2018-11-29T17:22:39.136Z,47.55
2018-11-29T17:23:39.263Z,47.45
2018-11-29T17:24:39.118Z,47.75
2018-11-29T17:25:39.200Z,47.55
2018-11-29T17:26:39.093Z,46.95
2018-11-29T17:27:39.171Z,46.75
2018-11-29T17:28:39.083Z,46.75
2018-11-29T17:29:39.141Z,46.97
2018-11-29T17:30:39.047Z,46.67
2018-11-29T17:31:39.102Z,47.27
2018-11-29T17:32:39.062Z,47.17
2018-11-29T17:33:39.207Z,46.95
2018-11-29T17:34:39.003Z,47.15
2018-11-29T17:35:39.046Z,46.77
2018-11-29T17:36:38.982Z,46.87
2018-11-29T17:37:39.012Z,47.27
2018-11-29T17:38:38.987Z,47.78
2018-11-29T17:39:39.076Z,47.58
2018-11-29T17:40:38.946Z,47.27
2018-11-29T17:41:39.052Z,47.27
2018-11-29T17:42:38.909Z,47.38
2018-11-29T17:43:39.061Z,47.27
2018-11-29T17:44:38.886Z,47.27
2018-11-29T17:45:40.058Z,46.97
2018-11-29T17:46:38.883Z,47.27
2018-11-29T17:47:38.954Z,46.87
2018-11-29T17:48:38.873Z,46.77
2018-11-29T17:49:40.046Z,47.07
2018-11-29T17:50:38.820Z,47.27
2018-11-29T17:51:38.996Z,47.07
2018-11-29T17:52:38.814Z,46.97
2018-11-29T17:53:38.891Z,46.87
2018-11-29T17:54:38.776Z,46.57
2018-11-29T17:55:38.838Z,46.37
2018-11-29T17:56:38.754Z,46.57
2018-11-29T17:57:38.793Z,46.89
2018-11-29T17:58:38.759Z,46.77
2018-11-29T17:59:38.773Z,46.87
2018-11-29T18:00:38.711Z,46.97
2018-11-29T18:01:38.826Z,46.87
2018-11-29T18:02:38.706Z,47.47
2018-11-29T18:03:38.725Z,46.47
2018-11-29T18:04:38.671Z,46.97
2018-11-29T18:05:38.764Z,47.47
2018-11-29T18:06:38.648Z,45.58
2018-11-29T18:07:38.807Z,47.30
2018-11-29T18:08:38.630Z,45.86
2018-11-29T18:09:38.742Z,46.37
2018-11-29T18:10:38.604Z,46.19
2018-11-29T18:11:38.668Z,46.29
2018-11-29T18:12:38.579Z,46.49
2018-11-29T18:13:38.684Z,46.49
2018-11-29T18:14:38.574Z,46.69
2018-11-29T18:15:38.605Z,46.99
2018-11-29T18:16:38.534Z,46.19
2018-11-29T18:17:38.586Z,45.68
2018-11-29T18:18:38.516Z,45.68
2018-11-29T18:19:38.576Z,45.78
2018-11-29T18:20:38.526Z,45.68
2018-11-29T18:21:39.541Z,45.98
2018-11-29T18:22:38.465Z,45.89
2018-11-29T18:23:38.578Z,45.89
2018-11-29T18:24:38.469Z,46.09
2018-11-29T18:25:38.556Z,46.29
2018-11-29T18:26:38.420Z,46.19
2018-11-29T18:27:45.674Z,45.68
2018-11-29T18:28:38.699Z,45.38
2018-11-29T18:29:38.517Z,46.09
2018-11-29T18:30:38.384Z,46.09
2018-11-29T18:31:38.449Z,46.09
2018-11-29T18:32:38.417Z,45.78
2018-11-29T18:33:38.420Z,45.78
2018-11-29T18:34:38.353Z,46.09
2018-11-29T18:35:38.543Z,46.09
2018-11-29T18:36:38.325Z,45.68
2018-11-29T18:37:38.354Z,46.39
2018-11-29T18:38:38.303Z,46.39
2018-11-29T18:39:38.370Z,46.49
2018-11-29T18:40:38.274Z,46.99
2018-11-29T18:41:38.292Z,46.69
2018-11-29T18:42:38.596Z,46.79
2018-11-29T18:43:38.942Z,47.30
2018-11-29T18:44:38.267Z,46.89
2018-11-29T18:45:38.331Z,47.30
2018-11-29T18:46:38.202Z,46.69
2018-11-29T18:47:38.300Z,47.40
2018-11-29T18:48:38.191Z,47.60
2018-11-29T18:49:38.373Z,47.30
2018-11-29T18:50:38.156Z,47.50
2018-11-29T18:51:38.233Z,47.90
2018-11-29T18:52:38.130Z,47.60
2018-11-29T18:53:39.225Z,47.90
2018-11-29T18:54:38.134Z,48.02
2018-11-29T18:55:38.171Z,47.50
2018-11-29T18:56:38.090Z,47.50
2018-11-29T18:57:38.144Z,48.00
2018-11-29T18:58:38.069Z,47.60
2018-11-29T18:59:38.146Z,47.32
2018-11-29T19:00:38.044Z,47.62
2018-11-29T19:01:38.086Z,46.99
2018-11-29T19:02:38.021Z,46.79
2018-11-29T19:03:38.045Z,46.71
2018-11-29T19:04:38.045Z,47.12
2018-11-29T19:05:38.019Z,47.22
2018-11-29T19:06:37.984Z,47.12
2018-11-29T19:07:38.085Z,47.02
2018-11-29T19:08:37.960Z,47.02
2018-11-29T19:09:37.993Z,46.81
2018-11-29T19:10:37.934Z,47.32
2018-11-29T19:11:38.024Z,47.02
2018-11-29T19:12:37.911Z,47.32
2018-11-29T19:13:37.987Z,48.02
2018-11-29T19:14:37.907Z,47.82
2018-11-29T19:15:37.957Z,47.52
2018-11-29T19:16:37.941Z,47.72
2018-11-29T19:17:37.966Z,47.92
2018-11-29T19:18:37.841Z,48.13
2018-11-29T19:19:37.946Z,48.02
2018-11-29T19:20:38.115Z,48.53
2018-11-29T19:21:37.857Z,48.33
2018-11-29T19:22:37.799Z,48.43
2018-11-29T19:23:37.830Z,48.63
2018-11-29T19:24:37.795Z,48.73
2018-11-29T19:25:37.924Z,49.13
2018-11-29T19:26:37.757Z,48.83
2018-11-29T19:27:37.879Z,48.63
2018-11-29T19:28:37.732Z,48.93
2018-11-29T19:29:37.895Z,48.63
2018-11-29T19:30:37.710Z,48.53
2018-11-29T19:31:37.798Z,48.13
2018-11-29T19:32:37.695Z,49.33
2018-11-29T19:33:37.774Z,49.13
2018-11-29T19:34:37.699Z,48.93
2018-11-29T19:35:37.787Z,48.53